createdAt,value
2024-02-15T00:00:01.105Z,3.72
2024-02-15T00:02:32.236Z,3.77
2024-02-15T00:04:59.368Z,3.61
2024-02-15T00:07:27.514Z,3.50
2024-02-15T00:09:57.293Z,3.58
2024-02-15T00:12:24.299Z,3.67
2024-02-15T00:14:51.764Z,3.64
2024-02-15T00:17:19.367Z,3.62
2024-02-15T00:19:47.988Z,3.68
2024-02-15T00:22:15.257Z,3.70
2024-02-15T00:24:43.913Z,3.55
2024-02-15T00:27:12.383Z,3.67
2024-02-15T00:29:41.632Z,3.66
2024-02-15T00:32:09.382Z,3.72
2024-02-15T00:34:37.432Z,3.70
2024-02-15T00:37:05.792Z,3.58
2024-02-15T00:39:33.141Z,3.64
2024-02-15T00:42:01.614Z,3.62
2024-02-15T00:44:29.103Z,3.71
2024-02-15T00:46:57.229Z,3.65
2024-02-15T00:49:24.722Z,3.75
2024-02-15T00:51:51.939Z,3.78
2024-02-15T00:54:18.980Z,3.68
2024-02-15T00:56:46.178Z,3.52
2024-02-15T00:59:13.216Z,3.66
2024-02-15T01:01:40.295Z,3.63
2024-02-15T01:04:07.469Z,3.67
2024-02-15T01:06:34.886Z,3.64
2024-02-15T01:09:04.950Z,3.64
2024-02-15T01:11:36.947Z,3.52
2024-02-15T01:14:04.646Z,3.63
2024-02-15T01:16:31.941Z,3.60
2024-02-15T01:18:59.372Z,3.52
2024-02-15T01:21:26.960Z,3.63
2024-02-15T01:23:55.129Z,3.51
2024-02-15T01:26:22.377Z,3.45
2024-02-15T01:28:49.622Z,3.48
2024-02-15T01:31:18.611Z,3.30
2024-02-15T01:33:49.467Z,3.41
2024-02-15T01:36:17.837Z,3.45
2024-02-15T01:38:46.135Z,3.35
2024-02-15T01:41:13.406Z,3.42
2024-02-15T01:43:45.994Z,3.33
2024-02-15T01:46:13.389Z,3.51
2024-02-15T01:48:41.959Z,3.53
2024-02-15T01:51:11.454Z,3.56
2024-02-15T01:53:39.971Z,3.53
2024-02-15T01:56:08.248Z,3.47
2024-02-15T01:58:37.344Z,3.45
2024-02-15T02:01:06.452Z,3.35
2024-02-15T02:03:33.672Z,3.48
2024-02-15T02:06:01.991Z,3.47
2024-02-15T02:08:29.237Z,3.39
2024-02-15T02:10:56.297Z,3.38
2024-02-15T02:13:23.555Z,3.44
2024-02-15T02:15:50.916Z,3.38
2024-02-15T02:18:18.107Z,3.44
2024-02-15T02:20:46.894Z,3.45
2024-02-15T02:23:21.298Z,3.34
2024-02-15T02:25:50.324Z,3.18
2024-02-15T02:28:20.191Z,3.28
2024-02-15T02:30:47.755Z,3.29
2024-02-15T02:33:23.375Z,3.27
2024-02-15T02:35:50.785Z,3.24
2024-02-15T02:38:17.993Z,3.30
2024-02-15T02:40:45.214Z,3.36
2024-02-15T02:43:12.254Z,3.04
2024-02-15T02:45:39.606Z,3.30
2024-02-15T02:48:06.974Z,3.24
2024-02-15T02:50:34.417Z,3.14
2024-02-15T02:53:01.590Z,3.26
2024-02-15T02:55:29.148Z,3.20
2024-02-15T02:57:56.639Z,3.27
2024-02-15T03:00:24.315Z,2.96
2024-02-15T03:02:51.607Z,3.18
2024-02-15T03:05:22.368Z,3.18
2024-02-15T03:07:52.806Z,3.20
2024-02-15T03:10:20.318Z,3.08
2024-02-15T03:12:50.249Z,3.05
2024-02-15T03:15:19.452Z,3.04
2024-02-15T03:17:49.408Z,3.05
2024-02-15T03:20:23.509Z,3.04
2024-02-15T03:22:54.662Z,3.01
2024-02-15T03:25:25.198Z,2.98
2024-02-15T03:27:57.127Z,2.91
2024-02-15T03:30:26.616Z,2.94
2024-02-15T03:32:54.617Z,3.03
2024-02-15T03:35:24.392Z,2.97
2024-02-15T03:37:52.297Z,2.75
2024-02-15T03:40:24.248Z,2.74
2024-02-15T03:42:51.727Z,2.67
2024-02-15T03:45:19.026Z,2.89
2024-02-15T03:47:47.769Z,2.91
2024-02-15T03:50:16.373Z,2.79
2024-02-15T03:52:45.037Z,2.77
2024-02-15T03:55:12.212Z,2.83
2024-02-15T03:57:44.943Z,2.85
2024-02-15T04:00:14.971Z,2.81
2024-02-15T04:02:42.862Z,2.78
2024-02-15T04:05:13.780Z,2.81
2024-02-15T04:07:41.256Z,2.78
2024-02-15T04:10:09.766Z,2.74
2024-02-15T04:12:50.117Z,2.72
2024-02-15T04:15:19.103Z,2.68
2024-02-15T04:17:47.226Z,2.69
2024-02-15T04:20:16.596Z,2.60
2024-02-15T04:22:44.895Z,2.62
2024-02-15T04:25:17.695Z,2.74
2024-02-15T04:27:48.044Z,2.67
2024-02-15T04:30:17.255Z,2.80
2024-02-15T04:32:44.874Z,2.82
2024-02-15T04:35:14.789Z,2.93
2024-02-15T04:37:43.153Z,2.88
2024-02-15T04:40:12.117Z,2.82
2024-02-15T04:42:42.063Z,2.72
2024-02-15T04:45:11.860Z,2.72
2024-02-15T04:47:53.799Z,2.70
2024-02-15T04:50:22.248Z,2.63
2024-02-15T04:52:51.167Z,2.62
2024-02-15T04:55:19.209Z,2.75
2024-02-15T04:57:48.613Z,2.70
2024-02-15T05:00:16.656Z,2.69
2024-02-15T05:02:45.823Z,2.72
2024-02-15T05:05:14.768Z,2.61
2024-02-15T05:07:44.533Z,2.56
2024-02-15T05:10:11.983Z,2.56
2024-02-15T05:12:41.501Z,2.67
2024-02-15T05:15:12.715Z,2.57
2024-02-15T05:17:44.544Z,2.56
2024-02-15T05:20:13.429Z,2.47
2024-02-15T05:22:43.930Z,2.59
2024-02-15T05:25:13.777Z,2.57
2024-02-15T05:27:40.956Z,2.49
2024-02-15T05:30:08.632Z,2.42
2024-02-15T05:32:43.078Z,2.53
2024-02-15T05:35:14.055Z,2.40
2024-02-15T05:37:41.174Z,2.46
2024-02-15T05:40:08.776Z,2.46
2024-02-15T05:42:36.176Z,2.50
2024-02-15T05:45:30.803Z,2.56
2024-02-15T05:47:58.049Z,2.59
2024-02-15T05:50:25.730Z,2.62
2024-02-15T05:52:54.285Z,2.58
2024-02-15T05:55:21.438Z,2.65
2024-02-15T05:57:48.550Z,2.56
2024-02-15T06:00:22.715Z,2.46
2024-02-15T06:02:51.925Z,2.66
2024-02-15T06:05:21.345Z,2.61
2024-02-15T06:07:49.002Z,2.65
2024-02-15T06:10:16.909Z,2.73
2024-02-15T06:12:44.405Z,2.59
2024-02-15T06:15:17.116Z,2.65
2024-02-15T06:17:45.802Z,2.81
2024-02-15T06:20:15.373Z,2.85
2024-02-15T06:22:43.433Z,2.87
2024-02-15T06:25:11.708Z,2.88
2024-02-15T06:27:42.024Z,2.98
2024-02-15T06:30:29.878Z,3.00
2024-02-15T06:33:15.508Z,3.00
2024-02-15T06:36:01.978Z,2.95
2024-02-15T06:38:47.747Z,2.89
2024-02-15T06:41:15.108Z,2.74
2024-02-15T06:43:42.673Z,2.98
2024-02-15T06:46:11.958Z,2.96
2024-02-15T06:48:39.440Z,3.00
2024-02-15T06:51:07.432Z,2.84
2024-02-15T06:53:34.783Z,3.06
2024-02-15T06:56:03.811Z,3.03
2024-02-15T06:58:31.198Z,3.14
2024-02-15T07:00:58.230Z,3.24
2024-02-15T07:03:25.443Z,3.22
2024-02-15T07:05:52.571Z,3.16
2024-02-15T07:08:19.767Z,3.11
2024-02-15T07:10:46.950Z,3.04
2024-02-15T07:13:13.933Z,3.07
2024-02-15T07:15:41.227Z,3.03
2024-02-15T07:18:08.679Z,3.10
2024-02-15T07:20:35.972Z,3.05
2024-02-15T07:23:03.217Z,3.17
2024-02-15T07:25:30.413Z,3.11
2024-02-15T07:27:57.870Z,3.10
2024-02-15T07:30:26.406Z,3.24
2024-02-15T07:32:53.900Z,3.31
2024-02-15T07:35:21.302Z,3.32
2024-02-15T07:38:00.030Z,3.36
2024-02-15T07:40:29.818Z,3.29
2024-02-15T07:43:00.201Z,3.35
2024-02-15T07:45:27.457Z,3.48
2024-02-15T07:47:54.903Z,3.40
2024-02-15T07:50:24.255Z,3.64
2024-02-15T07:52:52.420Z,3.48
2024-02-15T07:55:19.536Z,3.30
2024-02-15T07:57:49.605Z,3.33
2024-02-15T08:00:17.890Z,3.51
2024-02-15T08:02:45.658Z,3.73
2024-02-15T08:05:15.276Z,3.84
2024-02-15T08:07:45.435Z,3.85
2024-02-15T08:10:16.673Z,3.79
2024-02-15T08:12:44.904Z,3.96
2024-02-15T08:15:15.995Z,4.00
2024-02-15T08:17:44.587Z,4.04
2024-02-15T08:20:12.616Z,3.92
2024-02-15T08:22:40.524Z,4.13
2024-02-15T08:25:11.484Z,4.07
2024-02-15T08:27:46.643Z,3.95
2024-02-15T08:30:15.009Z,4.21
2024-02-15T08:32:43.710Z,4.26
2024-02-15T08:35:12.493Z,4.47
2024-02-15T08:37:41.112Z,4.55
2024-02-15T08:40:14.753Z,4.81
2024-02-15T08:42:43.133Z,4.97
2024-02-15T08:45:11.854Z,4.57
2024-02-15T08:47:43.623Z,4.69
2024-02-15T08:50:13.003Z,4.78
2024-02-15T08:52:41.558Z,4.92
2024-02-15T08:55:10.810Z,4.67
2024-02-15T08:57:41.725Z,4.78
2024-02-15T09:00:15.109Z,4.74
2024-02-15T09:02:46.665Z,4.82
2024-02-15T09:05:18.620Z,4.84
2024-02-15T09:07:51.470Z,4.91
2024-02-15T09:10:19.039Z,5.28
2024-02-15T09:12:50.521Z,5.03
2024-02-15T09:15:18.942Z,5.34
2024-02-15T09:17:47.696Z,5.55
2024-02-15T09:20:21.813Z,5.68
2024-02-15T09:22:51.071Z,5.76
2024-02-15T09:25:19.531Z,5.61
2024-02-15T09:27:47.175Z,5.81
2024-02-15T09:30:15.219Z,5.80
2024-02-15T09:32:43.786Z,5.73
2024-02-15T09:35:15.647Z,5.87
2024-02-15T09:37:51.365Z,6.06
2024-02-15T09:40:21.013Z,6.28
2024-02-15T09:42:49.492Z,6.30
2024-02-15T09:45:18.676Z,6.41
2024-02-15T09:47:46.634Z,6.46
2024-02-15T09:50:17.216Z,6.60
2024-02-15T09:52:52.752Z,6.65
2024-02-15T09:55:21.201Z,6.38
2024-02-15T09:57:48.643Z,6.14
2024-02-15T10:00:18.797Z,6.31
2024-02-15T10:02:49.037Z,6.34
2024-02-15T10:05:18.618Z,6.59
2024-02-15T10:07:46.927Z,6.56
2024-02-15T10:10:18.364Z,6.48
2024-02-15T10:12:49.333Z,6.52
2024-02-15T10:15:41.895Z,6.48
2024-02-15T10:18:12.554Z,6.77
2024-02-15T10:20:41.832Z,6.79
2024-02-15T10:23:12.725Z,6.74
2024-02-15T10:25:42.131Z,6.86
2024-02-15T10:28:13.355Z,6.90
2024-02-15T10:30:46.993Z,6.94
2024-02-15T10:33:25.517Z,6.87
2024-02-15T10:36:15.703Z,6.79
2024-02-15T10:38:43.480Z,6.89
2024-02-15T10:41:12.488Z,6.74
2024-02-15T10:43:44.772Z,7.25
2024-02-15T10:46:14.224Z,7.55
2024-02-15T10:48:41.664Z,7.83
2024-02-15T10:51:12.186Z,7.69
2024-02-15T10:53:51.829Z,7.81
2024-02-15T10:56:21.020Z,7.71
2024-02-15T10:59:15.102Z,7.71
2024-02-15T11:01:45.175Z,7.85
2024-02-15T11:04:16.723Z,7.48
2024-02-15T11:06:45.766Z,7.43
2024-02-15T11:09:14.760Z,7.38
2024-02-15T11:11:43.075Z,7.56
2024-02-15T11:14:30.558Z,7.66
2024-02-15T11:16:59.148Z,7.72
2024-02-15T11:19:38.596Z,7.74
2024-02-15T11:22:15.736Z,7.85
2024-02-15T11:24:54.151Z,7.98
2024-02-15T11:27:31.386Z,8.03
2024-02-15T11:30:05.729Z,8.19
2024-02-15T11:32:57.595Z,8.43
2024-02-15T11:35:26.577Z,8.51
2024-02-15T11:38:05.518Z,8.25
2024-02-15T11:40:45.488Z,8.32
2024-02-15T11:43:51.466Z,8.05
2024-02-15T11:46:20.870Z,8.32
2024-02-15T11:48:49.585Z,8.51
2024-02-15T11:51:30.044Z,8.28
2024-02-15T11:54:08.062Z,8.43
2024-02-15T11:57:11.837Z,8.67
2024-02-15T12:00:15.689Z,8.79
2024-02-15T12:03:01.350Z,8.82
2024-02-15T12:05:46.965Z,8.62
2024-02-15T12:08:32.977Z,8.36
2024-02-15T12:11:19.819Z,8.47
2024-02-15T12:14:47.093Z,8.56
2024-02-15T12:17:56.516Z,8.63
2024-02-15T12:20:26.653Z,8.47
2024-02-15T12:22:54.560Z,8.71
2024-02-15T12:25:25.772Z,8.65
2024-02-15T12:28:01.008Z,9.06
2024-02-15T12:30:34.860Z,9.23
2024-02-15T12:33:13.096Z,9.08
2024-02-15T12:35:40.398Z,8.91
2024-02-15T12:38:09.739Z,8.95
2024-02-15T12:40:37.983Z,8.82
2024-02-15T12:43:13.389Z,8.93
2024-02-15T12:45:42.486Z,8.89
2024-02-15T12:48:11.967Z,9.18
2024-02-15T12:50:41.235Z,9.29
2024-02-15T12:53:09.588Z,9.06
2024-02-15T12:55:39.461Z,9.51
2024-02-15T12:58:16.535Z,9.50
2024-02-15T13:00:45.072Z,9.83
2024-02-15T13:03:15.171Z,9.66
2024-02-15T13:05:42.781Z,9.88
2024-02-15T13:08:15.577Z,9.47
2024-02-15T13:10:43.441Z,9.94
2024-02-15T13:13:11.378Z,9.89
2024-02-15T13:15:39.870Z,10.29
2024-02-15T13:18:11.243Z,10.21
2024-02-15T13:20:39.408Z,10.09
2024-02-15T13:23:15.651Z,9.81
2024-02-15T13:25:44.646Z,9.44
2024-02-15T13:28:14.716Z,9.65
2024-02-15T13:30:46.285Z,9.81
2024-02-15T13:33:15.039Z,9.63
2024-02-15T13:35:42.708Z,9.52
2024-02-15T13:38:16.306Z,9.41
2024-02-15T13:40:46.182Z,9.63
2024-02-15T13:43:13.694Z,9.42
2024-02-15T13:45:42.108Z,9.33
2024-02-15T13:48:10.690Z,9.40
2024-02-15T13:50:40.482Z,9.43
2024-02-15T13:53:10.696Z,9.48
2024-02-15T13:55:38.715Z,9.82
2024-02-15T13:58:05.899Z,9.78
2024-02-15T14:00:35.870Z,9.66
2024-02-15T14:03:07.517Z,9.84
2024-02-15T14:05:35.256Z,9.79
2024-02-15T14:08:04.500Z,9.69
2024-02-15T14:10:36.720Z,9.69
2024-02-15T14:13:13.040Z,9.55
2024-02-15T14:15:41.110Z,9.48
2024-02-15T14:18:15.709Z,9.29
2024-02-15T14:20:44.593Z,8.96
2024-02-15T14:23:15.535Z,9.20
2024-02-15T14:25:43.764Z,9.21
2024-02-15T14:28:11.064Z,9.51
2024-02-15T14:30:58.743Z,9.58
2024-02-15T14:33:33.117Z,9.68
2024-02-15T14:36:02.041Z,9.61
2024-02-15T14:38:30.253Z,9.84
2024-02-15T14:40:59.584Z,9.81
2024-02-15T14:43:28.583Z,9.73
2024-02-15T14:45:58.233Z,9.85
2024-02-15T14:48:26.964Z,9.75
2024-02-15T14:50:57.337Z,9.68
2024-02-15T14:53:25.440Z,9.70
2024-02-15T14:55:53.858Z,9.68
2024-02-15T14:58:23.942Z,9.59
2024-02-15T15:00:51.539Z,9.54
2024-02-15T15:03:19.083Z,9.57
2024-02-15T15:06:05.441Z,9.62
2024-02-15T15:08:52.107Z,9.56
2024-02-15T15:11:38.604Z,9.63
2024-02-15T15:14:07.081Z,9.58
2024-02-15T15:16:35.505Z,9.29
2024-02-15T15:19:04.477Z,9.27
2024-02-15T15:21:50.760Z,9.45
2024-02-15T15:24:17.929Z,9.39
2024-02-15T15:26:45.198Z,9.13
2024-02-15T15:29:12.867Z,8.84
2024-02-15T15:31:40.140Z,8.66
2024-02-15T15:34:08.302Z,8.74
2024-02-15T15:36:35.901Z,8.89
2024-02-15T15:39:09.856Z,8.72
2024-02-15T15:41:38.847Z,8.63
2024-02-15T15:44:06.176Z,8.80
2024-02-15T15:46:34.670Z,8.83
2024-02-15T15:49:02.391Z,8.55
2024-02-15T15:51:29.586Z,8.50
2024-02-15T15:53:56.789Z,8.28
2024-02-15T15:56:23.871Z,8.20
2024-02-15T15:58:54.478Z,8.06
2024-02-15T16:01:22.156Z,7.70
2024-02-15T16:03:50.992Z,7.74
2024-02-15T16:06:18.577Z,7.61
2024-02-15T16:08:47.322Z,7.55
2024-02-15T16:11:17.981Z,7.43
2024-02-15T16:13:47.718Z,7.25
2024-02-15T16:16:15.524Z,7.29
2024-02-15T16:18:43.524Z,7.25
2024-02-15T16:21:10.766Z,7.11
2024-02-15T16:23:37.875Z,7.05
2024-02-15T16:26:07.252Z,7.12
2024-02-15T16:28:34.575Z,7.07
2024-02-15T16:31:02.997Z,7.12
2024-02-15T16:33:30.328Z,6.96
2024-02-15T16:35:57.787Z,6.95
2024-02-15T16:38:24.885Z,6.80
2024-02-15T16:40:51.968Z,6.76
2024-02-15T16:43:19.256Z,6.72
2024-02-15T16:45:47.610Z,6.83
2024-02-15T16:48:14.801Z,6.70
2024-02-15T16:50:43.126Z,6.77
2024-02-15T16:53:10.438Z,6.79
2024-02-15T16:55:37.496Z,6.83
2024-02-15T16:58:09.506Z,6.70
2024-02-15T17:00:39.687Z,6.66
2024-02-15T17:03:07.230Z,6.60
2024-02-15T17:05:36.982Z,6.64
2024-02-15T17:08:07.648Z,6.50
2024-02-15T17:10:36.781Z,6.53
2024-02-15T17:13:05.531Z,6.32
2024-02-15T17:15:33.024Z,6.35
2024-02-15T17:18:00.333Z,6.29
2024-02-15T17:20:28.067Z,6.30
2024-02-15T17:22:55.196Z,6.28
2024-02-15T17:25:26.649Z,6.31
2024-02-15T17:27:56.819Z,6.35
2024-02-15T17:30:25.021Z,6.15
2024-02-15T17:32:53.563Z,6.09
2024-02-15T17:35:22.574Z,6.10
2024-02-15T17:37:50.506Z,6.03
2024-02-15T17:40:18.939Z,6.07
2024-02-15T17:42:46.215Z,6.12
2024-02-15T17:45:14.730Z,6.02
2024-02-15T17:47:45.752Z,6.07
2024-02-15T17:50:19.323Z,6.01
2024-02-15T17:52:47.152Z,5.96
2024-02-15T17:55:16.314Z,5.97
2024-02-15T17:57:47.618Z,5.84
2024-02-15T18:00:21.234Z,5.67
2024-02-15T18:02:50.556Z,5.71
2024-02-15T18:05:21.465Z,5.70
2024-02-15T18:07:52.097Z,5.76
2024-02-15T18:10:22.962Z,5.50
2024-02-15T18:12:50.633Z,5.31
2024-02-15T18:15:30.534Z,5.38
2024-02-15T18:17:58.699Z,4.91
2024-02-15T18:20:27.344Z,5.31
2024-02-15T18:22:55.175Z,5.27
2024-02-15T18:25:22.459Z,5.10
2024-02-15T18:27:49.755Z,5.13
2024-02-15T18:30:20.047Z,5.17
2024-02-15T18:32:49.044Z,5.15
2024-02-15T18:35:17.887Z,5.24
2024-02-15T18:37:47.794Z,5.17
2024-02-15T18:40:22.591Z,5.16
2024-02-15T18:42:55.880Z,5.02
2024-02-15T18:45:23.302Z,5.11
2024-02-15T18:47:51.697Z,4.94
2024-02-15T18:50:21.591Z,4.94
2024-02-15T18:52:49.392Z,4.81
2024-02-15T18:55:16.989Z,4.89
2024-02-15T18:57:45.433Z,4.65
2024-02-15T19:00:23.582Z,4.60
2024-02-15T19:03:00.530Z,4.75
2024-02-15T19:05:29.353Z,4.61
2024-02-15T19:07:56.757Z,4.63
2024-02-15T19:10:24.257Z,4.53
2024-02-15T19:12:54.969Z,4.56
2024-02-15T19:15:24.435Z,4.69
2024-02-15T19:17:52.565Z,4.60
2024-02-15T19:20:20.050Z,4.61
2024-02-15T19:22:47.563Z,4.45
2024-02-15T19:25:22.138Z,4.52
2024-02-15T19:27:50.005Z,4.41
2024-02-15T19:30:19.865Z,4.59
2024-02-15T19:32:50.373Z,4.63
2024-02-15T19:35:19.908Z,4.58
2024-02-15T19:37:48.008Z,4.51
2024-02-15T19:40:19.068Z,4.45
2024-02-15T19:42:48.731Z,4.45
2024-02-15T19:45:20.029Z,4.37
2024-02-15T19:47:52.938Z,4.37
2024-02-15T19:50:24.549Z,4.26
2024-02-15T19:52:51.812Z,4.12
2024-02-15T19:55:18.900Z,4.26
2024-02-15T19:57:45.950Z,4.25
2024-02-15T20:00:15.238Z,4.27
2024-02-15T20:02:45.110Z,4.17
2024-02-15T20:05:13.348Z,4.13
2024-02-15T20:07:41.036Z,4.08
2024-02-15T20:10:09.239Z,3.96
2024-02-15T20:12:37.711Z,3.91
2024-02-15T20:15:09.468Z,3.97
2024-02-15T20:17:37.933Z,3.94
2024-02-15T20:20:09.873Z,3.92
2024-02-15T20:22:40.216Z,3.66
2024-02-15T20:25:10.814Z,3.74
2024-02-15T20:27:38.575Z,3.83
2024-02-15T20:30:06.592Z,3.72
2024-02-15T20:32:33.825Z,3.76
2024-02-15T20:35:01.060Z,3.61
2024-02-15T20:37:28.215Z,3.62
2024-02-15T20:39:55.223Z,3.65
2024-02-15T20:42:22.865Z,3.67
2024-02-15T20:44:50.378Z,3.61
2024-02-15T20:47:20.214Z,3.63
2024-02-15T20:49:47.810Z,3.54
2024-02-15T20:52:15.026Z,3.50
2024-02-15T20:54:42.380Z,3.45
2024-02-15T20:57:16.186Z,3.46
2024-02-15T20:59:43.829Z,3.47
2024-02-15T21:02:11.439Z,3.37
2024-02-15T21:04:39.148Z,3.49
2024-02-15T21:07:06.879Z,3.18
2024-02-15T21:09:34.226Z,3.39
2024-02-15T21:12:01.421Z,3.43
2024-02-15T21:14:28.508Z,3.32
2024-02-15T21:16:55.652Z,3.36
2024-02-15T21:19:22.740Z,3.42
2024-02-15T21:21:49.924Z,3.30
2024-02-15T21:24:17.086Z,3.24
2024-02-15T21:26:45.285Z,3.22
2024-02-15T21:29:16.693Z,3.34
2024-02-15T21:31:52.096Z,3.05
2024-02-15T21:34:19.581Z,3.07
2024-02-15T21:36:46.976Z,3.12
2024-02-15T21:39:14.281Z,3.08
2024-02-15T21:41:41.381Z,3.12
2024-02-15T21:44:12.284Z,3.13
2024-02-15T21:46:40.950Z,3.08
2024-02-15T21:49:08.322Z,3.09
2024-02-15T21:51:35.480Z,3.11
2024-02-15T21:54:02.661Z,3.00
2024-02-15T21:56:29.913Z,3.02
2024-02-15T21:58:56.929Z,2.82
2024-02-15T22:01:23.909Z,2.88
2024-02-15T22:03:52.061Z,2.79
2024-02-15T22:06:19.246Z,2.84
2024-02-15T22:08:46.828Z,2.91
2024-02-15T22:11:13.857Z,2.74
2024-02-15T22:13:43.718Z,2.78
2024-02-15T22:16:11.384Z,2.88
2024-02-15T22:18:38.725Z,2.87
2024-02-15T22:21:06.306Z,2.75
2024-02-15T22:23:33.364Z,2.80
2024-02-15T22:26:00.350Z,2.71
2024-02-15T22:28:27.571Z,2.72
2024-02-15T22:30:54.693Z,2.75
2024-02-15T22:33:24.957Z,2.72
2024-02-15T22:35:52.310Z,2.77
2024-02-15T22:38:19.776Z,2.75
2024-02-15T22:40:46.979Z,2.78
2024-02-15T22:43:14.243Z,2.60
2024-02-15T22:45:41.312Z,2.69
2024-02-15T22:48:08.599Z,2.56
2024-02-15T22:50:35.786Z,2.55
2024-02-15T22:53:03.612Z,2.61
2024-02-15T22:55:30.946Z,2.58
2024-02-15T22:57:59.157Z,2.53
2024-02-15T23:00:27.443Z,2.55
2024-02-15T23:02:54.840Z,2.55
2024-02-15T23:05:23.440Z,2.59
2024-02-15T23:07:51.664Z,2.46
2024-02-15T23:10:18.975Z,2.44
2024-02-15T23:12:46.057Z,2.45
2024-02-15T23:15:16.232Z,2.44
2024-02-15T23:17:43.742Z,2.44
2024-02-15T23:20:13.212Z,2.38
2024-02-15T23:22:43.046Z,2.40
2024-02-15T23:25:10.510Z,2.48
2024-02-15T23:27:37.554Z,2.47
2024-02-15T23:30:06.021Z,2.35
2024-02-15T23:32:36.123Z,2.33
2024-02-15T23:35:04.761Z,2.37
2024-02-15T23:37:50.302Z,2.22
2024-02-15T23:40:20.662Z,2.34
2024-02-15T23:42:47.688Z,2.37
2024-02-15T23:45:14.844Z,2.34
2024-02-15T23:47:42.148Z,2.34
2024-02-15T23:50:16.900Z,2.39
2024-02-15T23:52:47.053Z,2.56
2024-02-15T23:55:15.976Z,2.35
2024-02-15T23:57:44.590Z,2.25
